createdAt,value
2023-09-10T00:04:49.021Z,21.83
2023-09-10T00:19:36.064Z,20.33
2023-09-10T00:22:20.434Z,20.82
2023-09-10T00:25:07.594Z,21.21
2023-09-10T00:30:43.985Z,21.69
2023-09-10T00:33:19.303Z,21.87
2023-09-10T00:36:06.894Z,21.99
2023-09-10T00:41:42.797Z,20.57
2023-09-10T00:47:01.103Z,20.31
2023-09-10T00:49:31.955Z,20.78
2023-09-10T00:52:07.087Z,21.10
2023-09-10T00:54:39.999Z,21.34
2023-09-10T00:59:56.214Z,21.67
2023-09-10T01:02:25.967Z,21.80
2023-09-10T01:04:57.241Z,21.92
2023-09-10T01:07:29.972Z,22.03
2023-09-10T01:09:59.904Z,22.14
2023-09-10T01:12:50.841Z,21.85
2023-09-10T01:15:23.351Z,20.91
2023-09-10T01:21:09.096Z,20.54
2023-09-10T01:27:33.577Z,21.43
2023-09-10T01:33:37.926Z,21.85
2023-09-10T01:36:20.040Z,22.01
2023-09-10T01:39:12.121Z,22.13
2023-09-10T01:41:55.287Z,21.84
2023-09-10T01:44:45.888Z,20.92
2023-09-10T01:47:21.007Z,20.27
2023-09-10T01:49:53.740Z,20.42
2023-09-10T01:52:26.435Z,20.88
2023-09-10T01:54:56.871Z,21.22
2023-09-10T01:57:27.837Z,21.46
2023-09-10T02:00:13.262Z,21.62
2023-09-10T02:02:44.943Z,21.77
2023-09-10T02:05:16.116Z,21.89
2023-09-10T02:07:53.166Z,22.01
2023-09-10T02:10:22.956Z,21.76
2023-09-10T02:12:53.652Z,20.91
2023-09-10T02:15:23.143Z,20.20
2023-09-10T02:17:55.026Z,20.24
2023-09-10T02:20:24.847Z,20.68
2023-09-10T02:22:54.544Z,21.04
2023-09-10T02:25:24.199Z,21.30
2023-09-10T02:27:53.052Z,21.49
2023-09-10T02:30:22.194Z,21.65
2023-09-10T02:32:53.426Z,21.77
2023-09-10T02:35:23.936Z,21.89
2023-09-10T02:37:53.142Z,21.48
2023-09-10T02:40:23.660Z,20.63
2023-09-10T02:42:54.183Z,20.00
2023-09-10T02:45:33.844Z,20.20
2023-09-10T02:48:03.081Z,20.63
2023-09-10T02:50:32.117Z,20.94
2023-09-10T02:53:01.900Z,21.15
2023-09-10T02:55:30.935Z,21.33
2023-09-10T02:57:59.668Z,21.47
2023-09-10T03:00:29.424Z,21.59
2023-09-10T03:02:59.321Z,21.34
2023-09-10T03:05:33.209Z,20.51
2023-09-10T03:08:03.619Z,19.77
2023-09-10T03:10:33.989Z,19.82
2023-09-10T03:13:03.425Z,20.27
2023-09-10T03:15:33.371Z,20.63
2023-09-10T03:18:03.273Z,20.88
2023-09-10T03:20:33.335Z,21.06
2023-09-10T03:23:03.664Z,21.21
2023-09-10T03:25:37.169Z,21.34
2023-09-10T03:28:08.503Z,21.45
2023-09-10T03:30:38.417Z,21.47
2023-09-10T03:33:07.663Z,20.81
2023-09-10T03:35:36.987Z,19.99
2023-09-10T03:38:07.003Z,19.39
2023-09-10T03:40:37.399Z,19.53
2023-09-10T03:43:08.150Z,19.98
2023-09-10T03:45:37.805Z,20.33
2023-09-10T03:48:07.316Z,20.57
2023-09-10T03:50:37.813Z,20.75
2023-09-10T03:53:08.596Z,20.91
2023-09-10T03:55:37.975Z,21.03
2023-09-10T03:58:08.307Z,21.11
2023-09-10T04:00:39.150Z,20.68
2023-09-10T04:03:09.885Z,19.81
2023-09-10T04:05:41.716Z,19.18
2023-09-10T04:08:11.613Z,19.38
2023-09-10T04:10:42.340Z,19.81
2023-09-10T04:13:11.835Z,20.14
2023-09-10T04:15:41.053Z,20.38
2023-09-10T04:18:10.665Z,20.55
2023-09-10T04:20:40.830Z,20.70
2023-09-10T04:23:10.213Z,20.82
2023-09-10T04:25:40.053Z,20.93
2023-09-10T04:28:10.213Z,21.03
2023-09-10T04:30:41.235Z,21.12
2023-09-10T04:33:10.423Z,20.80
2023-09-10T04:35:50.343Z,19.93
2023-09-10T04:38:21.867Z,19.22
2023-09-10T04:40:52.483Z,19.38
2023-09-10T04:43:22.089Z,19.85
2023-09-10T04:45:50.841Z,20.21
2023-09-10T04:48:20.287Z,20.50
2023-09-10T04:50:50.068Z,20.73
2023-09-10T04:53:19.803Z,20.94
2023-09-10T04:55:56.767Z,21.12
2023-09-10T04:58:28.102Z,21.28
2023-09-10T05:00:57.844Z,21.45
2023-09-10T05:03:28.260Z,21.59
2023-09-10T05:06:02.292Z,21.73
2023-09-10T05:08:31.574Z,21.66
2023-09-10T05:11:02.835Z,20.93
2023-09-10T05:13:34.818Z,20.21
2023-09-10T05:16:04.441Z,20.09
2023-09-10T05:18:35.155Z,20.60
2023-09-10T05:21:05.484Z,21.07
2023-09-10T05:23:36.938Z,21.43
2023-09-10T05:26:15.777Z,21.71
2023-09-10T05:28:50.173Z,21.96
2023-09-10T05:31:33.627Z,22.17
2023-09-10T05:34:05.606Z,21.80
2023-09-10T05:36:41.820Z,21.08
2023-09-10T05:39:38.899Z,20.46
2023-09-10T05:42:27.474Z,20.65
2023-09-10T05:45:10.559Z,21.29
2023-09-10T05:47:46.614Z,21.78
2023-09-10T05:50:32.514Z,22.16
2023-09-10T05:55:58.754Z,22.75
2023-09-10T05:58:49.670Z,22.57
2023-09-10T06:01:42.683Z,21.71
2023-09-10T06:04:52.338Z,21.18
2023-09-10T06:11:23.341Z,22.27
2023-09-10T06:14:05.698Z,22.81
2023-09-10T06:20:14.339Z,22.66
2023-09-10T06:22:59.856Z,21.97
2023-09-10T06:25:43.735Z,21.52
2023-09-10T06:32:03.304Z,22.43
2023-09-10T06:34:59.091Z,23.01
2023-09-10T06:37:32.713Z,23.53
2023-09-10T06:40:03.037Z,23.54
2023-09-10T06:42:33.242Z,22.97
2023-09-10T06:45:11.372Z,22.49
2023-09-10T06:47:40.090Z,22.18
2023-09-10T06:50:09.107Z,21.99
2023-09-10T06:52:38.341Z,22.46
2023-09-10T06:55:07.412Z,23.23
2023-09-10T06:57:36.535Z,23.87
2023-09-10T07:00:05.423Z,23.98
2023-09-10T07:02:34.510Z,23.52
2023-09-10T07:05:04.243Z,23.15
2023-09-10T07:07:32.806Z,22.92
2023-09-10T07:10:01.869Z,22.77
2023-09-10T07:12:31.003Z,22.74
2023-09-10T07:14:59.680Z,23.36
2023-09-10T07:17:28.911Z,24.19
2023-09-10T07:19:57.656Z,24.43
2023-09-10T07:22:26.687Z,24.12
2023-09-10T07:24:55.786Z,23.86
2023-09-10T07:27:24.260Z,23.69
2023-09-10T07:29:52.855Z,23.60
2023-09-10T07:32:21.409Z,23.56
2023-09-10T07:34:50.450Z,23.55
2023-09-10T07:37:19.658Z,23.74
2023-09-10T07:39:48.932Z,24.56
2023-09-10T07:42:17.545Z,25.41
2023-09-10T07:44:46.070Z,25.67
2023-09-10T07:47:14.819Z,25.37
2023-09-10T07:49:43.964Z,25.11
2023-09-10T07:52:13.001Z,24.97
2023-09-10T07:54:43.741Z,24.89
2023-09-10T07:57:14.998Z,24.84
2023-09-10T07:59:45.902Z,24.83
2023-09-10T08:02:15.074Z,24.84
2023-09-10T08:04:45.903Z,24.85
2023-09-10T08:07:16.579Z,24.87
2023-09-10T08:09:45.784Z,24.93
2023-09-10T08:12:14.945Z,24.98
2023-09-10T08:14:44.226Z,25.03
2023-09-10T08:17:13.923Z,25.10
2023-09-10T08:19:43.866Z,25.19
2023-09-10T08:22:12.976Z,25.26
2023-09-10T08:24:42.584Z,25.36
2023-09-10T08:27:13.951Z,25.48
2023-09-10T08:29:43.050Z,25.59
2023-09-10T08:32:14.429Z,25.68
2023-09-10T08:34:45.581Z,25.78
2023-09-10T08:37:14.517Z,25.88
2023-09-10T08:39:43.291Z,25.99
2023-09-10T08:42:27.168Z,26.11
2023-09-10T08:44:58.256Z,26.25
2023-09-10T08:47:34.533Z,26.37
2023-09-10T08:50:13.309Z,26.48
2023-09-10T08:52:49.911Z,26.62
2023-09-10T08:55:20.957Z,26.76
2023-09-10T08:57:52.876Z,26.89
2023-09-10T09:00:23.716Z,27.04
2023-09-10T09:02:54.793Z,27.20
2023-09-10T09:05:28.765Z,27.35
2023-09-10T09:08:05.570Z,27.46
2023-09-10T09:10:35.384Z,27.57
2023-09-10T09:13:11.424Z,27.68
2023-09-10T09:15:41.093Z,27.83
2023-09-10T09:18:15.954Z,27.97
2023-09-10T09:20:52.354Z,28.05
2023-09-10T09:23:33.797Z,28.09
2023-09-10T09:26:03.668Z,28.11
2023-09-10T09:28:35.255Z,28.15
2023-09-10T09:31:12.106Z,28.20
2023-09-10T09:33:46.756Z,28.22
2023-09-10T09:36:15.562Z,28.27
2023-09-10T09:38:48.399Z,28.35
2023-09-10T09:41:18.263Z,28.45
2023-09-10T09:43:47.713Z,28.53
2023-09-10T09:46:17.823Z,28.62
2023-09-10T09:48:48.120Z,28.76
2023-09-10T09:51:18.058Z,28.87
2023-09-10T09:53:47.731Z,28.93
2023-09-10T09:56:19.105Z,29.00
2023-09-10T09:58:47.912Z,29.09
2023-09-10T10:01:17.294Z,29.17
2023-09-10T10:03:47.014Z,29.25
2023-09-10T10:06:17.966Z,29.33
2023-09-10T10:08:51.625Z,29.40
2023-09-10T10:11:33.788Z,29.52
2023-09-10T10:14:05.065Z,29.67
2023-09-10T10:16:34.597Z,29.79
2023-09-10T10:19:05.174Z,29.92
2023-09-10T10:21:34.111Z,30.05
2023-09-10T10:24:04.579Z,30.19
2023-09-10T10:26:35.439Z,30.35
2023-09-10T10:29:05.628Z,30.54
2023-09-10T10:31:38.346Z,30.68
2023-09-10T10:34:10.890Z,30.68
2023-09-10T10:37:04.749Z,30.64
2023-09-10T10:39:43.180Z,30.61
2023-09-10T10:42:17.436Z,30.66
2023-09-10T10:44:47.205Z,30.69
2023-09-10T10:47:23.572Z,30.73
2023-09-10T10:49:57.780Z,30.78
2023-09-10T10:52:32.190Z,30.81
2023-09-10T10:55:01.563Z,30.86
2023-09-10T10:57:31.227Z,30.97
2023-09-10T11:00:02.909Z,31.11
2023-09-10T11:02:32.577Z,31.25
2023-09-10T11:05:06.173Z,31.31
2023-09-10T11:07:36.612Z,31.34
2023-09-10T11:10:28.773Z,31.51
2023-09-10T11:13:07.782Z,31.77
2023-09-10T11:15:37.747Z,32.01
2023-09-10T11:18:38.776Z,32.28
2023-09-10T11:21:16.725Z,32.72
2023-09-10T11:23:53.265Z,33.20
2023-09-10T11:26:21.805Z,33.62
2023-09-10T11:28:56.200Z,34.01
2023-09-10T11:31:40.469Z,34.51
2023-09-10T11:34:21.694Z,35.07
2023-09-10T11:37:03.684Z,35.51
2023-09-10T11:39:34.210Z,36.00
2023-09-10T11:42:06.420Z,36.46
2023-09-10T11:44:36.734Z,36.85
2023-09-10T11:47:07.087Z,37.30
2023-09-10T11:49:35.891Z,37.79
2023-09-10T11:52:05.295Z,38.25
2023-09-10T11:54:35.103Z,38.64
2023-09-10T11:57:05.093Z,38.94
2023-09-10T11:59:34.099Z,39.21
2023-09-10T12:02:04.825Z,39.40
2023-09-10T12:04:35.634Z,39.58
2023-09-10T12:07:05.568Z,39.80
2023-09-10T12:09:34.575Z,40.07
2023-09-10T12:12:16.412Z,40.41
2023-09-10T12:14:45.279Z,40.81
2023-09-10T12:17:14.259Z,41.18
2023-09-10T12:19:44.575Z,41.56
2023-09-10T12:22:16.252Z,41.89
2023-09-10T12:24:46.223Z,42.15
2023-09-10T12:27:14.878Z,42.31
2023-09-10T12:29:44.881Z,42.49
2023-09-10T12:32:14.401Z,42.70
2023-09-10T12:34:44.737Z,42.84
2023-09-10T12:37:16.816Z,42.83
2023-09-10T12:39:47.206Z,42.73
2023-09-10T12:42:16.689Z,42.79
2023-09-10T12:44:46.362Z,42.95
2023-09-10T12:47:15.694Z,43.06
2023-09-10T12:49:47.164Z,43.35
2023-09-10T12:52:17.129Z,43.62
2023-09-10T12:54:45.967Z,43.75
2023-09-10T12:57:15.053Z,43.89
2023-09-10T12:59:44.368Z,44.08
2023-09-10T13:02:13.157Z,44.28
2023-09-10T13:04:41.885Z,44.34
2023-09-10T13:07:14.166Z,44.42
2023-09-10T13:09:42.929Z,44.56
2023-09-10T13:12:12.293Z,44.84
2023-09-10T13:14:41.425Z,45.13
2023-09-10T13:17:12.075Z,45.20
2023-09-10T13:19:41.218Z,45.08
2023-09-10T13:22:09.945Z,45.16
2023-09-10T13:24:38.802Z,45.26
2023-09-10T13:27:08.292Z,45.29
2023-09-10T13:29:37.154Z,45.29
2023-09-10T13:32:07.375Z,45.24
2023-09-10T13:34:36.339Z,45.15
2023-09-10T13:37:05.189Z,45.24
2023-09-10T13:39:35.471Z,45.39
2023-09-10T13:42:05.277Z,45.62
2023-09-10T13:44:34.764Z,45.95
2023-09-10T13:47:05.049Z,46.25
2023-09-10T13:49:33.782Z,46.52
2023-09-10T13:52:03.105Z,46.84
2023-09-10T13:54:31.768Z,47.13
2023-09-10T13:57:00.354Z,47.21
2023-09-10T13:59:29.198Z,47.25
2023-09-10T14:01:59.303Z,47.41
2023-09-10T14:04:28.012Z,47.56
2023-09-10T14:06:56.721Z,47.65
2023-09-10T14:09:27.589Z,47.79
2023-09-10T14:11:56.412Z,47.90
2023-09-10T14:14:26.488Z,47.99
2023-09-10T14:16:55.139Z,48.01
2023-09-10T14:19:23.693Z,47.86
2023-09-10T14:21:52.451Z,47.82
2023-09-10T14:24:21.117Z,48.03
2023-09-10T14:26:49.787Z,48.28
2023-09-10T14:29:19.174Z,48.50
2023-09-10T14:31:48.026Z,48.51
2023-09-10T14:34:17.413Z,48.51
2023-09-10T14:36:46.161Z,48.58
2023-09-10T14:39:15.900Z,48.60
2023-09-10T14:41:44.977Z,48.64
2023-09-10T14:44:14.094Z,48.65
2023-09-10T14:46:42.901Z,48.72
2023-09-10T14:49:11.588Z,48.81
2023-09-10T14:51:40.255Z,48.90
2023-09-10T14:54:09.584Z,49.06
2023-09-10T14:56:38.466Z,49.24
2023-09-10T14:59:07.700Z,49.37
2023-09-10T15:01:37.059Z,49.35
2023-09-10T15:04:06.340Z,49.34
2023-09-10T15:06:35.080Z,49.39
2023-09-10T15:09:05.332Z,49.51
2023-09-10T15:11:34.544Z,49.52
2023-09-10T15:14:03.309Z,49.42
2023-09-10T15:16:32.641Z,49.24
2023-09-10T15:19:01.817Z,49.08
2023-09-10T15:21:30.370Z,48.94
2023-09-10T15:24:00.205Z,48.85
2023-09-10T15:26:29.039Z,48.88
2023-09-10T15:28:57.780Z,48.85
2023-09-10T15:31:27.199Z,48.77
2023-09-10T15:33:56.311Z,48.75
2023-09-10T15:36:25.416Z,48.79
2023-09-10T15:38:54.477Z,48.81
2023-09-10T15:41:23.200Z,48.79
2023-09-10T15:43:52.478Z,48.82
2023-09-10T15:46:21.494Z,48.68
2023-09-10T15:48:50.729Z,48.32
2023-09-10T15:51:20.382Z,48.08
2023-09-10T15:53:49.468Z,47.87
2023-09-10T15:56:18.108Z,47.65
2023-09-10T15:58:47.377Z,47.46
2023-09-10T16:01:16.149Z,47.31
2023-09-10T16:03:46.249Z,47.14
2023-09-10T16:06:15.215Z,46.95
2023-09-10T16:08:43.993Z,46.78
2023-09-10T16:11:13.702Z,46.64
2023-09-10T16:13:44.560Z,46.49
2023-09-10T16:16:13.122Z,46.31
2023-09-10T16:18:42.358Z,46.06
2023-09-10T16:21:11.032Z,45.81
2023-09-10T16:23:40.051Z,45.52
2023-09-10T16:26:09.090Z,45.20
2023-09-10T16:28:38.418Z,44.84
2023-09-10T16:31:11.267Z,44.47
2023-09-10T16:33:40.288Z,44.06
2023-09-10T16:36:09.316Z,43.61
2023-09-10T16:38:38.016Z,43.14
2023-09-10T16:41:06.680Z,42.65
2023-09-10T16:43:35.286Z,42.15
2023-09-10T16:46:04.468Z,41.65
2023-09-10T16:48:33.167Z,41.13
2023-09-10T16:51:01.851Z,40.59
2023-09-10T16:53:30.640Z,39.94
2023-09-10T16:55:59.936Z,39.11
2023-09-10T16:58:28.644Z,38.16
2023-09-10T17:00:57.454Z,37.20
2023-09-10T17:03:27.911Z,36.26
2023-09-10T17:05:57.981Z,35.36
2023-09-10T17:08:27.246Z,34.50
2023-09-10T17:10:58.320Z,33.71
2023-09-10T17:13:27.161Z,32.94
2023-09-10T17:16:09.056Z,32.20
2023-09-10T17:18:39.281Z,31.45
2023-09-10T17:21:10.660Z,30.78
2023-09-10T17:23:39.467Z,30.14
2023-09-10T17:26:12.159Z,29.53
2023-09-10T17:28:41.808Z,28.94
2023-09-10T17:31:10.469Z,28.37
2023-09-10T17:33:39.417Z,27.84
2023-09-10T17:36:09.215Z,27.33
2023-09-10T17:38:39.043Z,26.87
2023-09-10T17:41:08.779Z,26.42
2023-09-10T17:43:38.186Z,26.00
2023-09-10T17:46:08.263Z,25.62
2023-09-10T17:48:38.191Z,25.24
2023-09-10T17:51:08.152Z,24.87
2023-09-10T17:53:37.351Z,24.54
2023-09-10T17:56:07.821Z,24.23
2023-09-10T17:58:38.726Z,23.95
2023-09-10T18:01:08.720Z,23.68
2023-09-10T18:03:39.395Z,23.44
2023-09-10T18:06:09.388Z,23.20
2023-09-10T18:08:38.397Z,23.31
2023-09-10T18:11:08.372Z,23.99
2023-09-10T18:13:40.674Z,24.57
2023-09-10T18:16:10.734Z,24.98
2023-09-10T18:18:40.417Z,24.68
2023-09-10T18:21:11.422Z,24.07
2023-09-10T18:23:40.674Z,23.58
2023-09-10T18:26:11.535Z,23.19
2023-09-10T18:28:40.797Z,22.87
2023-09-10T18:31:09.515Z,23.01
2023-09-10T18:33:39.234Z,23.66
2023-09-10T18:36:09.041Z,24.20
2023-09-10T18:38:43.370Z,24.61
2023-09-10T18:41:12.081Z,24.66
2023-09-10T18:43:41.131Z,24.04
2023-09-10T18:46:10.008Z,23.45
2023-09-10T18:48:39.443Z,22.98
2023-09-10T18:51:08.611Z,22.94
2023-09-10T18:53:37.291Z,23.52
2023-09-10T18:56:06.449Z,24.04
2023-09-10T18:58:35.562Z,24.42
2023-09-10T19:01:04.314Z,24.63
2023-09-10T19:03:33.902Z,24.14
2023-09-10T19:06:03.268Z,23.47
2023-09-10T19:08:32.522Z,22.94
2023-09-10T19:11:01.209Z,22.53
2023-09-10T19:13:30.158Z,22.60
2023-09-10T19:16:01.997Z,23.19
2023-09-10T19:18:31.524Z,23.71
2023-09-10T19:21:00.680Z,24.07
2023-09-10T19:23:29.512Z,24.35
2023-09-10T19:25:58.232Z,24.09
2023-09-10T19:28:27.209Z,23.38
2023-09-10T19:30:56.158Z,22.80
2023-09-10T19:33:25.415Z,22.41
2023-09-10T19:35:54.128Z,22.74
2023-09-10T19:38:24.035Z,23.30
2023-09-10T19:40:53.312Z,23.72
2023-09-10T19:43:23.195Z,24.02
2023-09-10T19:45:56.194Z,24.26
2023-09-10T19:48:25.311Z,24.07
2023-09-10T19:51:03.038Z,23.37
2023-09-10T19:53:31.770Z,22.72
2023-09-10T19:56:01.907Z,22.24
2023-09-10T19:58:34.125Z,22.05
2023-09-10T20:01:02.803Z,22.57
2023-09-10T20:03:32.415Z,23.08
2023-09-10T20:06:01.103Z,23.48
2023-09-10T20:08:29.799Z,23.78
2023-09-10T20:10:58.504Z,24.02
2023-09-10T20:13:27.052Z,23.94
2023-09-10T20:15:55.552Z,23.23
2023-09-10T20:18:24.236Z,22.57
2023-09-10T20:20:52.952Z,22.08
2023-09-10T20:23:21.711Z,22.22
2023-09-10T20:25:51.763Z,22.77
2023-09-10T20:28:20.327Z,23.22
2023-09-10T20:30:48.897Z,23.54
2023-09-10T20:33:17.713Z,23.78
2023-09-10T20:35:46.762Z,23.96
2023-09-10T20:38:15.447Z,23.93
2023-09-10T20:40:44.178Z,23.23
2023-09-10T20:43:13.092Z,22.53
2023-09-10T20:45:41.696Z,22.06
2023-09-10T20:48:10.537Z,22.32
2023-09-10T20:50:39.174Z,22.82
2023-09-10T20:53:07.939Z,23.21
2023-09-10T20:55:36.529Z,23.49
2023-09-10T20:58:05.344Z,23.71
2023-09-10T21:00:33.961Z,23.86
2023-09-10T21:03:13.722Z,23.40
2023-09-10T21:05:50.922Z,22.54
2023-09-10T21:08:19.921Z,22.01
2023-09-10T21:10:48.583Z,22.15
2023-09-10T21:13:17.192Z,22.65
2023-09-10T21:15:45.867Z,23.01
2023-09-10T21:18:16.139Z,23.29
2023-09-10T21:20:44.964Z,23.53
2023-09-10T21:23:14.064Z,23.69
2023-09-10T21:25:44.645Z,23.32
2023-09-10T21:28:14.260Z,22.53
2023-09-10T21:30:42.948Z,21.87
2023-09-10T21:33:11.628Z,21.73
2023-09-10T21:35:47.889Z,22.19
2023-09-10T21:38:24.709Z,22.63
2023-09-10T21:41:02.238Z,22.94
2023-09-10T21:44:13.571Z,23.18
2023-09-10T21:47:44.384Z,23.37
2023-09-10T21:50:41.472Z,23.54
2023-09-10T21:53:13.054Z,23.08
2023-09-10T21:56:58.967Z,22.29
2023-09-10T22:00:17.111Z,21.37
2023-09-10T22:11:32.301Z,22.75
2023-09-10T22:15:06.814Z,23.00
2023-09-10T22:17:48.334Z,23.18
2023-09-10T22:41:15.706Z,22.65
2023-09-10T22:51:03.169Z,23.22
2023-09-10T23:54:03.500Z,22.81
